sensor_id;sensor_type;location;lat;lon;timestamp;P1;durP1;ratioP1;P2;durP2;ratioP2
76417;SDS011;65250;47.602;19.002;2023-02-11T00:00:56;36.00;;;14.95;;
76417;SDS011;65250;47.602;19.002;2023-02-11T00:03:24;31.88;;;14.93;;
76417;SDS011;65250;47.602;19.002;2023-02-11T00:05:55;36.03;;;14.23;;
76417;SDS011;65250;47.602;19.002;2023-02-11T00:08:24;38.10;;;14.95;;
76417;SDS011;65250;47.602;19.002;2023-02-11T00:10:54;30.02;;;13.85;;
76417;SDS011;65250;47.602;19.002;2023-02-11T00:13:23;32.75;;;13.82;;
76417;SDS011;65250;47.602;19.002;2023-02-11T00:15:50;34.88;;;14.45;;
76417;SDS011;65250;47.602;19.002;2023-02-11T00:18:18;33.30;;;14.57;;
76417;SDS011;65250;47.602;19.002;2023-02-11T00:20:45;32.40;;;14.98;;
76417;SDS011;65250;47.602;19.002;2023-02-11T00:23:13;33.03;;;14.32;;
76417;SDS011;65250;47.602;19.002;2023-02-11T00:25:41;30.75;;;13.48;;
76417;SDS011;65250;47.602;19.002;2023-02-11T00:28:10;29.63;;;12.65;;
76417;SDS011;65250;47.602;19.002;2023-02-11T00:30:37;34.03;;;13.40;;
76417;SDS011;65250;47.602;19.002;2023-02-11T00:33:05;29.48;;;12.68;;
76417;SDS011;65250;47.602;19.002;2023-02-11T00:35:32;32.85;;;13.80;;
76417;SDS011;65250;47.602;19.002;2023-02-11T00:38:03;29.48;;;13.43;;
76417;SDS011;65250;47.602;19.002;2023-02-11T00:40:30;34.05;;;13.18;;
76417;SDS011;65250;47.602;19.002;2023-02-11T00:42:58;30.50;;;13.10;;
76417;SDS011;65250;47.602;19.002;2023-02-11T00:45:26;29.23;;;12.98;;
76417;SDS011;65250;47.602;19.002;2023-02-11T00:47:54;30.00;;;13.30;;
76417;SDS011;65250;47.602;19.002;2023-02-11T00:50:22;32.00;;;13.27;;
76417;SDS011;65250;47.602;19.002;2023-02-11T00:52:50;32.47;;;12.40;;
76417;SDS011;65250;47.602;19.002;2023-02-11T00:55:17;31.83;;;12.73;;
76417;SDS011;65250;47.602;19.002;2023-02-11T00:57:45;29.52;;;12.75;;
76417;SDS011;65250;47.602;19.002;2023-02-11T01:00:13;29.90;;;13.45;;
76417;SDS011;65250;47.602;19.002;2023-02-11T01:02:40;26.95;;;12.30;;
76417;SDS011;65250;47.602;19.002;2023-02-11T01:05:08;29.50;;;12.98;;
76417;SDS011;65250;47.602;19.002;2023-02-11T01:07:35;31.13;;;12.80;;
76417;SDS011;65250;47.602;19.002;2023-02-11T01:10:03;32.92;;;14.10;;
76417;SDS011;65250;47.602;19.002;2023-02-11T01:12:30;32.38;;;13.48;;
76417;SDS011;65250;47.602;19.002;2023-02-11T01:15:02;34.45;;;14.25;;
76417;SDS011;65250;47.602;19.002;2023-02-11T01:17:30;33.60;;;13.75;;
76417;SDS011;65250;47.602;19.002;2023-02-11T01:19:58;31.00;;;12.87;;
76417;SDS011;65250;47.602;19.002;2023-02-11T01:22:25;30.70;;;13.45;;
76417;SDS011;65250;47.602;19.002;2023-02-11T01:24:53;33.60;;;13.25;;
76417;SDS011;65250;47.602;19.002;2023-02-11T01:27:20;29.45;;;12.80;;
76417;SDS011;65250;47.602;19.002;2023-02-11T01:29:47;34.85;;;13.75;;
76417;SDS011;65250;47.602;19.002;2023-02-11T01:32:15;28.97;;;13.23;;
76417;SDS011;65250;47.602;19.002;2023-02-11T01:34:42;31.10;;;14.25;;
76417;SDS011;65250;47.602;19.002;2023-02-11T01:37:10;32.10;;;14.27;;
76417;SDS011;65250;47.602;19.002;2023-02-11T01:39:37;33.03;;;13.35;;
76417;SDS011;65250;47.602;19.002;2023-02-11T01:42:05;32.60;;;13.65;;
76417;SDS011;65250;47.602;19.002;2023-02-11T01:44:34;33.83;;;13.70;;
76417;SDS011;65250;47.602;19.002;2023-02-11T01:47:03;33.53;;;12.88;;
76417;SDS011;65250;47.602;19.002;2023-02-11T01:49:33;30.65;;;12.32;;
76417;SDS011;65250;47.602;19.002;2023-02-11T01:52:06;27.23;;;12.82;;
76417;SDS011;65250;47.602;19.002;2023-02-11T01:54:39;34.60;;;14.55;;
76417;SDS011;65250;47.602;19.002;2023-02-11T01:57:30;26.23;;;11.40;;
76417;SDS011;65250;47.602;19.002;2023-02-11T02:08:13;27.88;;;12.63;;
76417;SDS011;65250;47.602;19.002;2023-02-11T02:11:00;26.27;;;11.80;;
76417;SDS011;65250;47.602;19.002;2023-02-11T02:13:27;27.98;;;12.93;;
76417;SDS011;65250;47.602;19.002;2023-02-11T02:16:03;28.65;;;12.55;;
76417;SDS011;65250;47.602;19.002;2023-02-11T02:26:22;30.42;;;12.18;;
76417;SDS011;65250;47.602;19.002;2023-02-11T02:34:41;27.50;;;12.02;;
76417;SDS011;65250;47.602;19.002;2023-02-11T02:37:30;26.07;;;10.87;;
76417;SDS011;65250;47.602;19.002;2023-02-11T02:40:14;30.58;;;12.43;;
76417;SDS011;65250;47.602;19.002;2023-02-11T02:42:46;35.05;;;12.68;;
76417;SDS011;65250;47.602;19.002;2023-02-11T02:45:14;28.70;;;12.13;;
76417;SDS011;65250;47.602;19.002;2023-02-11T02:47:42;27.65;;;11.90;;
76417;SDS011;65250;47.602;19.002;2023-02-11T02:50:09;36.60;;;12.77;;
76417;SDS011;65250;47.602;19.002;2023-02-11T03:03:34;25.23;;;11.40;;
76417;SDS011;65250;47.602;19.002;2023-02-11T03:06:11;31.70;;;12.30;;
76417;SDS011;65250;47.602;19.002;2023-02-11T03:08:54;28.52;;;12.52;;
76417;SDS011;65250;47.602;19.002;2023-02-11T03:11:25;28.33;;;11.90;;
76417;SDS011;65250;47.602;19.002;2023-02-11T03:13:55;30.95;;;12.48;;
76417;SDS011;65250;47.602;19.002;2023-02-11T03:16:25;28.13;;;12.53;;
76417;SDS011;65250;47.602;19.002;2023-02-11T03:18:58;27.20;;;11.27;;
76417;SDS011;65250;47.602;19.002;2023-02-11T03:21:31;27.60;;;11.75;;
76417;SDS011;65250;47.602;19.002;2023-02-11T03:24:00;25.48;;;11.35;;
76417;SDS011;65250;47.602;19.002;2023-02-11T03:26:36;27.33;;;11.65;;
76417;SDS011;65250;47.602;19.002;2023-02-11T03:34:24;26.75;;;11.40;;
76417;SDS011;65250;47.602;19.002;2023-02-11T03:36:57;27.25;;;10.60;;
76417;SDS011;65250;47.602;19.002;2023-02-11T03:39:36;29.02;;;10.27;;
76417;SDS011;65250;47.602;19.002;2023-02-11T03:42:05;28.90;;;12.13;;
76417;SDS011;65250;47.602;19.002;2023-02-11T03:44:35;31.02;;;11.57;;
76417;SDS011;65250;47.602;19.002;2023-02-11T03:47:07;28.48;;;10.93;;
76417;SDS011;65250;47.602;19.002;2023-02-11T03:49:35;24.75;;;10.45;;
76417;SDS011;65250;47.602;19.002;2023-02-11T03:52:04;29.25;;;12.18;;
76417;SDS011;65250;47.602;19.002;2023-02-11T03:54:33;27.43;;;12.37;;
76417;SDS011;65250;47.602;19.002;2023-02-11T03:57:01;26.23;;;11.90;;
76417;SDS011;65250;47.602;19.002;2023-02-11T03:59:28;29.92;;;11.45;;
76417;SDS011;65250;47.602;19.002;2023-02-11T04:01:56;23.88;;;10.23;;
76417;SDS011;65250;47.602;19.002;2023-02-11T04:04:25;30.80;;;11.98;;
76417;SDS011;65250;47.602;19.002;2023-02-11T04:06:52;27.70;;;11.23;;
76417;SDS011;65250;47.602;19.002;2023-02-11T04:09:20;28.95;;;10.90;;
76417;SDS011;65250;47.602;19.002;2023-02-11T04:11:47;27.77;;;11.45;;
76417;SDS011;65250;47.602;19.002;2023-02-11T04:14:15;29.95;;;11.15;;
76417;SDS011;65250;47.602;19.002;2023-02-11T04:16:42;27.25;;;11.25;;
76417;SDS011;65250;47.602;19.002;2023-02-11T04:19:10;28.47;;;10.73;;
76417;SDS011;65250;47.602;19.002;2023-02-11T04:21:37;26.35;;;10.73;;
76417;SDS011;65250;47.602;19.002;2023-02-11T04:24:04;25.95;;;11.00;;
76417;SDS011;65250;47.602;19.002;2023-02-11T04:26:32;24.65;;;10.45;;
76417;SDS011;65250;47.602;19.002;2023-02-11T04:28:59;28.30;;;12.00;;
76417;SDS011;65250;47.602;19.002;2023-02-11T04:31:27;29.37;;;10.33;;
76417;SDS011;65250;47.602;19.002;2023-02-11T04:33:55;27.75;;;11.10;;
76417;SDS011;65250;47.602;19.002;2023-02-11T04:36:22;24.70;;;9.68;;
76417;SDS011;65250;47.602;19.002;2023-02-11T04:38:50;28.92;;;11.70;;
76417;SDS011;65250;47.602;19.002;2023-02-11T04:41:18;30.50;;;11.38;;
76417;SDS011;65250;47.602;19.002;2023-02-11T04:43:45;24.97;;;10.57;;
76417;SDS011;65250;47.602;19.002;2023-02-11T04:46:13;28.00;;;11.30;;
76417;SDS011;65250;47.602;19.002;2023-02-11T04:48:40;27.42;;;10.52;;
76417;SDS011;65250;47.602;19.002;2023-02-11T04:51:08;25.48;;;11.18;;
76417;SDS011;65250;47.602;19.002;2023-02-11T04:53:35;22.63;;;10.32;;
76417;SDS011;65250;47.602;19.002;2023-02-11T04:56:03;24.77;;;10.17;;
76417;SDS011;65250;47.602;19.002;2023-02-11T04:58:31;23.02;;;9.65;;
76417;SDS011;65250;47.602;19.002;2023-02-11T05:01:06;25.35;;;10.25;;
76417;SDS011;65250;47.602;19.002;2023-02-11T05:03:34;24.20;;;10.73;;
76417;SDS011;65250;47.602;19.002;2023-02-11T05:06:02;25.38;;;10.77;;
76417;SDS011;65250;47.602;19.002;2023-02-11T05:08:30;26.10;;;10.43;;
76417;SDS011;65250;47.602;19.002;2023-02-11T05:10:58;27.77;;;10.73;;
76417;SDS011;65250;47.602;19.002;2023-02-11T05:13:25;25.10;;;9.48;;
76417;SDS011;65250;47.602;19.002;2023-02-11T05:15:53;23.80;;;10.50;;
76417;SDS011;65250;47.602;19.002;2023-02-11T05:18:20;23.60;;;10.75;;
76417;SDS011;65250;47.602;19.002;2023-02-11T05:20:48;21.97;;;9.57;;
76417;SDS011;65250;47.602;19.002;2023-02-11T05:23:16;22.02;;;10.23;;
76417;SDS011;65250;47.602;19.002;2023-02-11T05:25:44;22.48;;;10.35;;
76417;SDS011;65250;47.602;19.002;2023-02-11T05:28:11;23.20;;;10.75;;
76417;SDS011;65250;47.602;19.002;2023-02-11T05:30:39;21.10;;;9.75;;
76417;SDS011;65250;47.602;19.002;2023-02-11T05:33:07;24.77;;;10.43;;
76417;SDS011;65250;47.602;19.002;2023-02-11T05:35:34;26.67;;;10.23;;
76417;SDS011;65250;47.602;19.002;2023-02-11T05:38:02;24.20;;;10.25;;
76417;SDS011;65250;47.602;19.002;2023-02-11T05:40:29;26.63;;;10.80;;
76417;SDS011;65250;47.602;19.002;2023-02-11T05:42:57;30.33;;;11.00;;
76417;SDS011;65250;47.602;19.002;2023-02-11T05:45:24;28.07;;;11.23;;
76417;SDS011;65250;47.602;19.002;2023-02-11T05:47:52;21.13;;;10.05;;
76417;SDS011;65250;47.602;19.002;2023-02-11T05:50:19;28.38;;;11.63;;
76417;SDS011;65250;47.602;19.002;2023-02-11T05:52:47;24.83;;;10.50;;
76417;SDS011;65250;47.602;19.002;2023-02-11T05:55:15;28.05;;;11.38;;
76417;SDS011;65250;47.602;19.002;2023-02-11T05:57:42;30.97;;;11.97;;
76417;SDS011;65250;47.602;19.002;2023-02-11T06:00:11;26.60;;;10.70;;
76417;SDS011;65250;47.602;19.002;2023-02-11T06:02:39;27.08;;;11.00;;
76417;SDS011;65250;47.602;19.002;2023-02-11T06:05:07;29.58;;;11.70;;
76417;SDS011;65250;47.602;19.002;2023-02-11T06:07:34;28.45;;;11.40;;
76417;SDS011;65250;47.602;19.002;2023-02-11T06:10:02;30.50;;;12.13;;
76417;SDS011;65250;47.602;19.002;2023-02-11T06:12:30;28.83;;;12.18;;
76417;SDS011;65250;47.602;19.002;2023-02-11T06:14:57;24.08;;;10.80;;
76417;SDS011;65250;47.602;19.002;2023-02-11T06:17:25;29.42;;;11.35;;
76417;SDS011;65250;47.602;19.002;2023-02-11T06:19:52;40.67;;;11.13;;
76417;SDS011;65250;47.602;19.002;2023-02-11T06:22:20;29.80;;;12.60;;
76417;SDS011;65250;47.602;19.002;2023-02-11T06:24:48;27.25;;;10.85;;
76417;SDS011;65250;47.602;19.002;2023-02-11T06:27:27;25.20;;;11.23;;
76417;SDS011;65250;47.602;19.002;2023-02-11T06:29:55;31.55;;;11.70;;
76417;SDS011;65250;47.602;19.002;2023-02-11T06:32:23;23.88;;;10.23;;
76417;SDS011;65250;47.602;19.002;2023-02-11T06:35:09;26.83;;;10.57;;
76417;SDS011;65250;47.602;19.002;2023-02-11T06:37:38;27.33;;;11.52;;
76417;SDS011;65250;47.602;19.002;2023-02-11T06:40:07;25.77;;;10.85;;
76417;SDS011;65250;47.602;19.002;2023-02-11T06:42:34;31.38;;;12.40;;
76417;SDS011;65250;47.602;19.002;2023-02-11T06:45:05;28.25;;;11.18;;
76417;SDS011;65250;47.602;19.002;2023-02-11T06:47:35;29.43;;;11.73;;
76417;SDS011;65250;47.602;19.002;2023-02-11T06:50:03;29.58;;;12.38;;
76417;SDS011;65250;47.602;19.002;2023-02-11T06:52:31;30.88;;;11.35;;
76417;SDS011;65250;47.602;19.002;2023-02-11T06:54:59;28.25;;;12.52;;
76417;SDS011;65250;47.602;19.002;2023-02-11T06:57:26;32.92;;;13.45;;
76417;SDS011;65250;47.602;19.002;2023-02-11T06:59:54;32.43;;;13.40;;
76417;SDS011;65250;47.602;19.002;2023-02-11T07:02:22;28.55;;;12.25;;
76417;SDS011;65250;47.602;19.002;2023-02-11T07:04:50;29.08;;;13.68;;
76417;SDS011;65250;47.602;19.002;2023-02-11T07:07:17;29.95;;;13.40;;
76417;SDS011;65250;47.602;19.002;2023-02-11T07:09:45;32.35;;;14.07;;
76417;SDS011;65250;47.602;19.002;2023-02-11T07:12:13;31.37;;;13.97;;
76417;SDS011;65250;47.602;19.002;2023-02-11T07:14:41;32.25;;;15.13;;
76417;SDS011;65250;47.602;19.002;2023-02-11T07:17:08;33.50;;;14.23;;
76417;SDS011;65250;47.602;19.002;2023-02-11T07:19:36;29.92;;;13.77;;
76417;SDS011;65250;47.602;19.002;2023-02-11T07:22:04;26.75;;;12.30;;
76417;SDS011;65250;47.602;19.002;2023-02-11T07:24:31;28.57;;;12.13;;
76417;SDS011;65250;47.602;19.002;2023-02-11T07:26:59;30.40;;;12.38;;
76417;SDS011;65250;47.602;19.002;2023-02-11T07:29:27;30.70;;;13.32;;
76417;SDS011;65250;47.602;19.002;2023-02-11T07:31:55;28.15;;;12.77;;
76417;SDS011;65250;47.602;19.002;2023-02-11T07:34:23;23.65;;;12.70;;
76417;SDS011;65250;47.602;19.002;2023-02-11T07:36:50;33.77;;;16.47;;
76417;SDS011;65250;47.602;19.002;2023-02-11T07:39:18;29.15;;;11.85;;
76417;SDS011;65250;47.602;19.002;2023-02-11T07:41:47;30.08;;;12.73;;
76417;SDS011;65250;47.602;19.002;2023-02-11T07:44:15;26.83;;;11.80;;
76417;SDS011;65250;47.602;19.002;2023-02-11T07:46:43;26.52;;;11.82;;
76417;SDS011;65250;47.602;19.002;2023-02-11T07:49:11;23.93;;;10.90;;
76417;SDS011;65250;47.602;19.002;2023-02-11T07:51:38;24.90;;;11.40;;
76417;SDS011;65250;47.602;19.002;2023-02-11T07:54:06;22.88;;;11.13;;
76417;SDS011;65250;47.602;19.002;2023-02-11T07:56:34;27.90;;;11.52;;
76417;SDS011;65250;47.602;19.002;2023-02-11T07:59:02;26.08;;;11.88;;
76417;SDS011;65250;47.602;19.002;2023-02-11T08:01:30;26.63;;;12.03;;
76417;SDS011;65250;47.602;19.002;2023-02-11T08:03:58;27.85;;;12.75;;
76417;SDS011;65250;47.602;19.002;2023-02-11T08:06:28;29.00;;;12.27;;
76417;SDS011;65250;47.602;19.002;2023-02-11T08:08:57;29.15;;;12.60;;
76417;SDS011;65250;47.602;19.002;2023-02-11T08:11:27;29.42;;;13.65;;
76417;SDS011;65250;47.602;19.002;2023-02-11T08:13:55;26.70;;;12.30;;
76417;SDS011;65250;47.602;19.002;2023-02-11T08:16:23;24.70;;;12.63;;
76417;SDS011;65250;47.602;19.002;2023-02-11T08:18:56;27.17;;;13.57;;
76417;SDS011;65250;47.602;19.002;2023-02-11T08:21:25;25.55;;;12.27;;
76417;SDS011;65250;47.602;19.002;2023-02-11T08:23:54;28.55;;;13.38;;
76417;SDS011;65250;47.602;19.002;2023-02-11T08:26:23;29.30;;;13.17;;
76417;SDS011;65250;47.602;19.002;2023-02-11T08:28:53;27.75;;;12.85;;
76417;SDS011;65250;47.602;19.002;2023-02-11T08:31:35;27.58;;;13.13;;
76417;SDS011;65250;47.602;19.002;2023-02-11T08:34:04;27.02;;;12.98;;
76417;SDS011;65250;47.602;19.002;2023-02-11T08:36:35;26.40;;;13.48;;
76417;SDS011;65250;47.602;19.002;2023-02-11T08:39:04;29.67;;;12.90;;
76417;SDS011;65250;47.602;19.002;2023-02-11T08:41:45;32.40;;;13.18;;
76417;SDS011;65250;47.602;19.002;2023-02-11T08:44:15;28.40;;;13.50;;
76417;SDS011;65250;47.602;19.002;2023-02-11T08:46:44;27.63;;;13.15;;
76417;SDS011;65250;47.602;19.002;2023-02-11T08:49:12;26.13;;;13.68;;
76417;SDS011;65250;47.602;19.002;2023-02-11T08:51:40;27.83;;;13.40;;
76417;SDS011;65250;47.602;19.002;2023-02-11T08:54:08;27.02;;;12.25;;
76417;SDS011;65250;47.602;19.002;2023-02-11T08:56:36;29.33;;;14.68;;
76417;SDS011;65250;47.602;19.002;2023-02-11T08:59:05;30.13;;;14.95;;
76417;SDS011;65250;47.602;19.002;2023-02-11T09:01:33;31.23;;;13.70;;
76417;SDS011;65250;47.602;19.002;2023-02-11T09:04:00;31.43;;;14.30;;
76417;SDS011;65250;47.602;19.002;2023-02-11T09:06:29;35.15;;;15.23;;
76417;SDS011;65250;47.602;19.002;2023-02-11T09:08:56;35.08;;;14.95;;
76417;SDS011;65250;47.602;19.002;2023-02-11T09:11:26;31.55;;;15.32;;
76417;SDS011;65250;47.602;19.002;2023-02-11T09:13:55;31.90;;;15.02;;
76417;SDS011;65250;47.602;19.002;2023-02-11T09:16:24;32.23;;;15.27;;
76417;SDS011;65250;47.602;19.002;2023-02-11T09:18:52;34.22;;;18.05;;
76417;SDS011;65250;47.602;19.002;2023-02-11T09:21:20;31.65;;;16.70;;
76417;SDS011;65250;47.602;19.002;2023-02-11T09:23:48;33.58;;;17.10;;
76417;SDS011;65250;47.602;19.002;2023-02-11T09:26:17;31.38;;;15.80;;
76417;SDS011;65250;47.602;19.002;2023-02-11T09:28:46;28.53;;;15.43;;
76417;SDS011;65250;47.602;19.002;2023-02-11T09:31:16;30.17;;;16.17;;
76417;SDS011;65250;47.602;19.002;2023-02-11T09:33:47;35.08;;;18.00;;
76417;SDS011;65250;47.602;19.002;2023-02-11T09:36:17;30.92;;;16.15;;
76417;SDS011;65250;47.602;19.002;2023-02-11T09:38:47;37.03;;;17.92;;
76417;SDS011;65250;47.602;19.002;2023-02-11T09:44:22;41.50;;;18.88;;
76417;SDS011;65250;47.602;19.002;2023-02-11T09:46:55;35.33;;;18.70;;
76417;SDS011;65250;47.602;19.002;2023-02-11T09:49:40;32.08;;;17.58;;
76417;SDS011;65250;47.602;19.002;2023-02-11T09:55:05;33.53;;;17.63;;
76417;SDS011;65250;47.602;19.002;2023-02-11T09:57:55;33.50;;;16.95;;
76417;SDS011;65250;47.602;19.002;2023-02-11T10:00:27;31.77;;;17.20;;
76417;SDS011;65250;47.602;19.002;2023-02-11T10:03:03;32.67;;;17.27;;
76417;SDS011;65250;47.602;19.002;2023-02-11T10:14:00;33.63;;;17.63;;
76417;SDS011;65250;47.602;19.002;2023-02-11T10:24:50;33.88;;;17.63;;
76417;SDS011;65250;47.602;19.002;2023-02-11T10:27:22;35.10;;;16.73;;
76417;SDS011;65250;47.602;19.002;2023-02-11T10:29:56;44.38;;;17.63;;
76417;SDS011;65250;47.602;19.002;2023-02-11T10:32:40;33.33;;;17.35;;
76417;SDS011;65250;47.602;19.002;2023-02-11T10:35:13;33.17;;;17.50;;
76417;SDS011;65250;47.602;19.002;2023-02-11T10:37:44;35.13;;;18.17;;
76417;SDS011;65250;47.602;19.002;2023-02-11T10:40:13;38.03;;;18.65;;
76417;SDS011;65250;47.602;19.002;2023-02-11T10:42:43;35.83;;;17.75;;
76417;SDS011;65250;47.602;19.002;2023-02-11T10:51:11;35.45;;;18.65;;
76417;SDS011;65250;47.602;19.002;2023-02-11T10:53:43;32.88;;;18.20;;
76417;SDS011;65250;47.602;19.002;2023-02-11T10:56:25;31.80;;;18.15;;
76417;SDS011;65250;47.602;19.002;2023-02-11T10:58:57;36.15;;;19.45;;
76417;SDS011;65250;47.602;19.002;2023-02-11T11:01:38;42.90;;;18.77;;
76417;SDS011;65250;47.602;19.002;2023-02-11T11:04:20;35.65;;;19.67;;
76417;SDS011;65250;47.602;19.002;2023-02-11T11:10:04;34.10;;;17.50;;
76417;SDS011;65250;47.602;19.002;2023-02-11T11:17:37;38.95;;;16.35;;
76417;SDS011;65250;47.602;19.002;2023-02-11T11:20:15;30.33;;;15.32;;
76417;SDS011;65250;47.602;19.002;2023-02-11T11:22:45;27.05;;;14.13;;
76417;SDS011;65250;47.602;19.002;2023-02-11T11:25:24;31.63;;;15.55;;
76417;SDS011;65250;47.602;19.002;2023-02-11T11:27:54;27.47;;;14.27;;
76417;SDS011;65250;47.602;19.002;2023-02-11T11:30:26;27.83;;;15.48;;
76417;SDS011;65250;47.602;19.002;2023-02-11T11:32:58;29.17;;;14.27;;
76417;SDS011;65250;47.602;19.002;2023-02-11T11:35:26;30.98;;;15.73;;
76417;SDS011;65250;47.602;19.002;2023-02-11T11:38:00;29.75;;;15.55;;
76417;SDS011;65250;47.602;19.002;2023-02-11T11:40:30;30.07;;;14.27;;
76417;SDS011;65250;47.602;19.002;2023-02-11T11:45:51;34.15;;;14.73;;
76417;SDS011;65250;47.602;19.002;2023-02-11T11:51:08;28.92;;;15.02;;
76417;SDS011;65250;47.602;19.002;2023-02-11T11:56:15;27.52;;;13.27;;
76417;SDS011;65250;47.602;19.002;2023-02-11T11:58:46;27.83;;;15.00;;
76417;SDS011;65250;47.602;19.002;2023-02-11T12:06:42;27.43;;;13.53;;
76417;SDS011;65250;47.602;19.002;2023-02-11T12:26:11;27.80;;;12.80;;
76417;SDS011;65250;47.602;19.002;2023-02-11T12:29:06;27.50;;;12.23;;
76417;SDS011;65250;47.602;19.002;2023-02-11T12:34:33;28.93;;;12.50;;
76417;SDS011;65250;47.602;19.002;2023-02-11T12:58:54;18.15;;;9.85;;
76417;SDS011;65250;47.602;19.002;2023-02-11T13:01:28;17.17;;;9.20;;
76417;SDS011;65250;47.602;19.002;2023-02-11T13:04:00;21.05;;;10.25;;
76417;SDS011;65250;47.602;19.002;2023-02-11T13:06:56;19.80;;;9.25;;
76417;SDS011;65250;47.602;19.002;2023-02-11T13:09:30;18.13;;;9.27;;
76417;SDS011;65250;47.602;19.002;2023-02-11T13:12:01;17.67;;;9.63;;
76417;SDS011;65250;47.602;19.002;2023-02-11T13:14:50;19.97;;;9.40;;
76417;SDS011;65250;47.602;19.002;2023-02-11T13:17:21;19.17;;;9.13;;
76417;SDS011;65250;47.602;19.002;2023-02-11T13:19:56;21.48;;;10.13;;
76417;SDS011;65250;47.602;19.002;2023-02-11T13:25:03;21.52;;;9.55;;
76417;SDS011;65250;47.602;19.002;2023-02-11T13:30:44;22.92;;;9.93;;
76417;SDS011;65250;47.602;19.002;2023-02-11T13:33:30;20.75;;;9.52;;
76417;SDS011;65250;47.602;19.002;2023-02-11T13:38:30;17.30;;;8.77;;
76417;SDS011;65250;47.602;19.002;2023-02-11T13:43:33;21.30;;;10.10;;
76417;SDS011;65250;47.602;19.002;2023-02-11T13:46:06;18.70;;;9.57;;
76417;SDS011;65250;47.602;19.002;2023-02-11T13:48:38;16.13;;;9.13;;
76417;SDS011;65250;47.602;19.002;2023-02-11T13:51:14;18.73;;;9.73;;
76417;SDS011;65250;47.602;19.002;2023-02-11T13:53:44;20.77;;;9.63;;
76417;SDS011;65250;47.602;19.002;2023-02-11T13:56:30;21.50;;;9.48;;
76417;SDS011;65250;47.602;19.002;2023-02-11T13:58:58;21.17;;;10.25;;
76417;SDS011;65250;47.602;19.002;2023-02-11T14:02:19;18.55;;;10.18;;
76417;SDS011;65250;47.602;19.002;2023-02-11T14:10:58;18.45;;;10.63;;
76417;SDS011;65250;47.602;19.002;2023-02-11T14:13:31;22.17;;;10.75;;
76417;SDS011;65250;47.602;19.002;2023-02-11T14:16:09;21.13;;;10.95;;
76417;SDS011;65250;47.602;19.002;2023-02-11T14:23:47;22.15;;;11.20;;
76417;SDS011;65250;47.602;19.002;2023-02-11T14:28:59;23.77;;;12.25;;
76417;SDS011;65250;47.602;19.002;2023-02-11T14:36:54;26.52;;;13.25;;
76417;SDS011;65250;47.602;19.002;2023-02-11T14:39:26;25.30;;;12.05;;
76417;SDS011;65250;47.602;19.002;2023-02-11T14:41:58;22.58;;;11.45;;
76417;SDS011;65250;47.602;19.002;2023-02-11T14:44:29;25.08;;;11.18;;
76417;SDS011;65250;47.602;19.002;2023-02-11T14:46:57;23.63;;;11.67;;
76417;SDS011;65250;47.602;19.002;2023-02-11T14:49:33;26.02;;;12.00;;
76417;SDS011;65250;47.602;19.002;2023-02-11T14:55:04;20.73;;;10.70;;
76417;SDS011;65250;47.602;19.002;2023-02-11T14:57:39;26.75;;;12.65;;
76417;SDS011;65250;47.602;19.002;2023-02-11T15:00:26;27.77;;;13.50;;
76417;SDS011;65250;47.602;19.002;2023-02-11T15:02:54;23.00;;;11.57;;
76417;SDS011;65250;47.602;19.002;2023-02-11T15:05:26;24.75;;;12.18;;
76417;SDS011;65250;47.602;19.002;2023-02-11T15:07:56;26.02;;;12.15;;
76417;SDS011;65250;47.602;19.002;2023-02-11T15:13:04;24.07;;;11.73;;
76417;SDS011;65250;47.602;19.002;2023-02-11T15:15:32;29.17;;;12.57;;
76417;SDS011;65250;47.602;19.002;2023-02-11T15:18:02;27.17;;;13.00;;
76417;SDS011;65250;47.602;19.002;2023-02-11T15:20:30;31.40;;;13.55;;
76417;SDS011;65250;47.602;19.002;2023-02-11T15:23:05;27.75;;;13.35;;
76417;SDS011;65250;47.602;19.002;2023-02-11T15:25:41;25.80;;;12.33;;
76417;SDS011;65250;47.602;19.002;2023-02-11T15:28:14;25.00;;;11.52;;
76417;SDS011;65250;47.602;19.002;2023-02-11T15:30:55;25.77;;;11.55;;
76417;SDS011;65250;47.602;19.002;2023-02-11T15:33:32;25.92;;;12.02;;
76417;SDS011;65250;47.602;19.002;2023-02-11T15:36:03;27.55;;;12.05;;
76417;SDS011;65250;47.602;19.002;2023-02-11T15:38:32;24.20;;;11.57;;
76417;SDS011;65250;47.602;19.002;2023-02-11T15:41:00;24.75;;;12.60;;
76417;SDS011;65250;47.602;19.002;2023-02-11T15:43:45;32.97;;;13.40;;
76417;SDS011;65250;47.602;19.002;2023-02-11T15:46:17;29.38;;;12.27;;
76417;SDS011;65250;47.602;19.002;2023-02-11T15:48:53;28.35;;;12.02;;
76417;SDS011;65250;47.602;19.002;2023-02-11T15:53:52;29.42;;;12.38;;
76417;SDS011;65250;47.602;19.002;2023-02-11T15:56:30;27.50;;;12.30;;
76417;SDS011;65250;47.602;19.002;2023-02-11T16:01:50;28.83;;;12.55;;
76417;SDS011;65250;47.602;19.002;2023-02-11T16:04:20;27.10;;;12.27;;
76417;SDS011;65250;47.602;19.002;2023-02-11T16:06:49;27.17;;;12.63;;
76417;SDS011;65250;47.602;19.002;2023-02-11T16:14:20;24.92;;;11.90;;
76417;SDS011;65250;47.602;19.002;2023-02-11T16:16:50;27.13;;;11.37;;
76417;SDS011;65250;47.602;19.002;2023-02-11T16:19:20;30.85;;;12.43;;
76417;SDS011;65250;47.602;19.002;2023-02-11T16:21:51;30.95;;;14.48;;
76417;SDS011;65250;47.602;19.002;2023-02-11T16:24:21;30.08;;;14.23;;
76417;SDS011;65250;47.602;19.002;2023-02-11T16:26:54;29.75;;;12.90;;
76417;SDS011;65250;47.602;19.002;2023-02-11T16:32:09;31.02;;;13.95;;
76417;SDS011;65250;47.602;19.002;2023-02-11T16:34:43;27.77;;;12.85;;
76417;SDS011;65250;47.602;19.002;2023-02-11T16:37:11;27.80;;;12.23;;
76417;SDS011;65250;47.602;19.002;2023-02-11T16:39:38;31.40;;;13.05;;
76417;SDS011;65250;47.602;19.002;2023-02-11T16:42:07;27.57;;;13.07;;
76417;SDS011;65250;47.602;19.002;2023-02-11T16:44:38;27.77;;;12.10;;
76417;SDS011;65250;47.602;19.002;2023-02-11T16:47:06;28.58;;;12.85;;
76417;SDS011;65250;47.602;19.002;2023-02-11T16:49:39;30.77;;;13.32;;
76417;SDS011;65250;47.602;19.002;2023-02-11T16:52:11;30.92;;;13.15;;
76417;SDS011;65250;47.602;19.002;2023-02-11T16:54:40;26.07;;;11.30;;
76417;SDS011;65250;47.602;19.002;2023-02-11T16:57:27;27.85;;;12.13;;
76417;SDS011;65250;47.602;19.002;2023-02-11T16:59:56;31.50;;;11.95;;
76417;SDS011;65250;47.602;19.002;2023-02-11T17:02:26;26.02;;;11.57;;
76417;SDS011;65250;47.602;19.002;2023-02-11T17:04:57;25.00;;;11.48;;
76417;SDS011;65250;47.602;19.002;2023-02-11T17:07:26;29.10;;;12.60;;
76417;SDS011;65250;47.602;19.002;2023-02-11T17:09:54;25.90;;;11.85;;
76417;SDS011;65250;47.602;19.002;2023-02-11T17:12:22;24.90;;;12.70;;
76417;SDS011;65250;47.602;19.002;2023-02-11T17:14:52;27.08;;;12.10;;
76417;SDS011;65250;47.602;19.002;2023-02-11T17:17:20;27.92;;;12.30;;
76417;SDS011;65250;47.602;19.002;2023-02-11T17:19:50;26.93;;;12.07;;
76417;SDS011;65250;47.602;19.002;2023-02-11T17:22:18;29.55;;;12.32;;
76417;SDS011;65250;47.602;19.002;2023-02-11T17:24:45;28.27;;;12.35;;
76417;SDS011;65250;47.602;19.002;2023-02-11T17:27:13;34.97;;;13.43;;